sensor_id;sensor_type;location;lat;lon;timestamp;pressure;altitude;pressure_sealevel;temperature;humidity
50011;BME280;35899;50.352;19.390;2023-11-19T00:01:07;98220.27;;;0.30;100.00
50011;BME280;35899;50.352;19.390;2023-11-19T00:03:56;98220.84;;;0.28;100.00
50011;BME280;35899;50.352;19.390;2023-11-19T00:06:25;98219.30;;;0.28;100.00
50011;BME280;35899;50.352;19.390;2023-11-19T00:08:53;98222.52;;;0.29;100.00
50011;BME280;35899;50.352;19.390;2023-11-19T00:11:21;98220.78;;;0.30;100.00
50011;BME280;35899;50.352;19.390;2023-11-19T00:13:49;98224.88;;;0.30;100.00
50011;BME280;35899;50.352;19.390;2023-11-19T00:16:19;98224.19;;;0.31;100.00
50011;BME280;35899;50.352;19.390;2023-11-19T00:18:47;98219.59;;;0.30;100.00
50011;BME280;35899;50.352;19.390;2023-11-19T00:21:15;98216.23;;;0.29;100.00
50011;BME280;35899;50.352;19.390;2023-11-19T00:23:43;98213.65;;;0.30;100.00
50011;BME280;35899;50.352;19.390;2023-11-19T00:26:11;98209.08;;;0.29;100.00
50011;BME280;35899;50.352;19.390;2023-11-19T00:28:40;98204.84;;;0.28;100.00
50011;BME280;35899;50.352;19.390;2023-11-19T00:31:09;98199.64;;;0.25;100.00
50011;BME280;35899;50.352;19.390;2023-11-19T00:33:37;98188.14;;;0.22;100.00
50011;BME280;35899;50.352;19.390;2023-11-19T00:36:16;98188.19;;;0.20;100.00
50011;BME280;35899;50.352;19.390;2023-11-19T00:38:43;98182.02;;;0.22;100.00
50011;BME280;35899;50.352;19.390;2023-11-19T00:41:12;98184.05;;;0.23;100.00
50011;BME280;35899;50.352;19.390;2023-11-19T00:43:40;98190.69;;;0.22;100.00
50011;BME280;35899;50.352;19.390;2023-11-19T00:46:08;98191.70;;;0.23;100.00
50011;BME280;35899;50.352;19.390;2023-11-19T00:48:36;98192.72;;;0.23;100.00
50011;BME280;35899;50.352;19.390;2023-11-19T00:51:04;98189.45;;;0.25;100.00
50011;BME280;35899;50.352;19.390;2023-11-19T00:53:32;98183.64;;;0.25;100.00
50011;BME280;35899;50.352;19.390;2023-11-19T00:56:01;98178.50;;;0.27;100.00
50011;BME280;35899;50.352;19.390;2023-11-19T00:58:29;98179.86;;;0.26;100.00
50011;BME280;35899;50.352;19.390;2023-11-19T01:00:57;98177.83;;;0.27;100.00
50011;BME280;35899;50.352;19.390;2023-11-19T01:03:25;98169.66;;;0.26;100.00
50011;BME280;35899;50.352;19.390;2023-11-19T01:05:53;98168.48;;;0.26;100.00
50011;BME280;35899;50.352;19.390;2023-11-19T01:08:21;98176.02;;;0.24;100.00
50011;BME280;35899;50.352;19.390;2023-11-19T01:10:49;98183.48;;;0.18;100.00
50011;BME280;35899;50.352;19.390;2023-11-19T01:13:21;98182.21;;;0.14;100.00
50011;BME280;35899;50.352;19.390;2023-11-19T01:15:49;98181.38;;;0.13;100.00
50011;BME280;35899;50.352;19.390;2023-11-19T01:18:17;98176.93;;;0.14;100.00
50011;BME280;35899;50.352;19.390;2023-11-19T01:20:46;98177.08;;;0.15;100.00
50011;BME280;35899;50.352;19.390;2023-11-19T01:23:14;98175.20;;;0.15;100.00
50011;BME280;35899;50.352;19.390;2023-11-19T01:25:43;98171.63;;;0.15;100.00
50011;BME280;35899;50.352;19.390;2023-11-19T01:28:11;98167.73;;;0.14;100.00
50011;BME280;35899;50.352;19.390;2023-11-19T01:30:39;98165.02;;;0.14;100.00
50011;BME280;35899;50.352;19.390;2023-11-19T01:33:07;98161.29;;;0.14;100.00
50011;BME280;35899;50.352;19.390;2023-11-19T01:35:35;98154.67;;;0.13;100.00
50011;BME280;35899;50.352;19.390;2023-11-19T01:38:04;98151.59;;;0.14;100.00
50011;BME280;35899;50.352;19.390;2023-11-19T01:40:35;98146.11;;;0.15;100.00
50011;BME280;35899;50.352;19.390;2023-11-19T01:43:03;98137.94;;;0.15;100.00
50011;BME280;35899;50.352;19.390;2023-11-19T01:45:31;98131.80;;;0.16;100.00
50011;BME280;35899;50.352;19.390;2023-11-19T01:48:00;98131.82;;;0.15;100.00
50011;BME280;35899;50.352;19.390;2023-11-19T01:50:30;98135.05;;;0.15;100.00
50011;BME280;35899;50.352;19.390;2023-11-19T01:52:59;98135.09;;;0.14;100.00
50011;BME280;35899;50.352;19.390;2023-11-19T01:55:27;98135.08;;;0.14;100.00
50011;BME280;35899;50.352;19.390;2023-11-19T01:57:58;98130.84;;;0.13;100.00
50011;BME280;35899;50.352;19.390;2023-11-19T02:00:27;98125.59;;;0.13;100.00
50011;BME280;35899;50.352;19.390;2023-11-19T02:02:55;98122.52;;;0.13;100.00
50011;BME280;35899;50.352;19.390;2023-11-19T02:05:24;98120.30;;;0.13;100.00
50011;BME280;35899;50.352;19.390;2023-11-19T02:07:53;98108.91;;;0.12;100.00
50011;BME280;35899;50.352;19.390;2023-11-19T02:10:21;98101.73;;;0.13;100.00
50011;BME280;35899;50.352;19.390;2023-11-19T02:12:49;98096.98;;;0.13;100.00
50011;BME280;35899;50.352;19.390;2023-11-19T02:15:17;98088.80;;;0.13;100.00
50011;BME280;35899;50.352;19.390;2023-11-19T02:17:45;98075.02;;;0.13;100.00
50011;BME280;35899;50.352;19.390;2023-11-19T02:20:13;98063.47;;;0.13;100.00
50011;BME280;35899;50.352;19.390;2023-11-19T02:22:41;98055.45;;;0.13;100.00
50011;BME280;35899;50.352;19.390;2023-11-19T02:28:07;98047.60;;;0.14;100.00
50011;BME280;35899;50.352;19.390;2023-11-19T02:30:35;98045.91;;;0.14;100.00
50011;BME280;35899;50.352;19.390;2023-11-19T02:33:03;98042.19;;;0.13;100.00
50011;BME280;35899;50.352;19.390;2023-11-19T02:35:31;98033.52;;;0.13;100.00
50011;BME280;35899;50.352;19.390;2023-11-19T02:37:59;98028.91;;;0.13;100.00
50011;BME280;35899;50.352;19.390;2023-11-19T02:40:27;98035.55;;;0.13;100.00
50011;BME280;35899;50.352;19.390;2023-11-19T02:42:55;98027.41;;;0.12;100.00
50011;BME280;35899;50.352;19.390;2023-11-19T02:45:25;98012.10;;;0.12;100.00
50011;BME280;35899;50.352;19.390;2023-11-19T02:47:53;98004.23;;;0.14;100.00
50011;BME280;35899;50.352;19.390;2023-11-19T02:50:22;97992.98;;;0.14;100.00
50011;BME280;35899;50.352;19.390;2023-11-19T02:52:53;97988.73;;;0.14;100.00
50011;BME280;35899;50.352;19.390;2023-11-19T02:55:22;97981.06;;;0.14;100.00
50011;BME280;35899;50.352;19.390;2023-11-19T02:57:51;97970.85;;;0.14;100.00
50011;BME280;35899;50.352;19.390;2023-11-19T03:00:20;97961.50;;;0.14;100.00
50011;BME280;35899;50.352;19.390;2023-11-19T03:02:49;97960.66;;;0.14;100.00
50011;BME280;35899;50.352;19.390;2023-11-19T03:05:34;97964.08;;;0.13;100.00
50011;BME280;35899;50.352;19.390;2023-11-19T03:08:02;97956.35;;;0.15;100.00
50011;BME280;35899;50.352;19.390;2023-11-19T03:10:30;97952.25;;;0.16;100.00
50011;BME280;35899;50.352;19.390;2023-11-19T03:12:58;97952.44;;;0.15;100.00
50011;BME280;35899;50.352;19.390;2023-11-19T03:15:26;97951.27;;;0.15;100.00
50011;BME280;35899;50.352;19.390;2023-11-19T03:17:54;97955.50;;;0.16;100.00
50011;BME280;35899;50.352;19.390;2023-11-19T03:20:22;97959.75;;;0.15;100.00
50011;BME280;35899;50.352;19.390;2023-11-19T03:22:50;97949.39;;;0.15;100.00
50011;BME280;35899;50.352;19.390;2023-11-19T03:25:18;97943.31;;;0.13;100.00
50011;BME280;35899;50.352;19.390;2023-11-19T03:27:47;97942.47;;;0.13;100.00
50011;BME280;35899;50.352;19.390;2023-11-19T03:30:15;97942.64;;;0.13;100.00
50011;BME280;35899;50.352;19.390;2023-11-19T03:32:43;97946.21;;;0.13;100.00
50011;BME280;35899;50.352;19.390;2023-11-19T03:35:11;97944.85;;;0.13;100.00
50011;BME280;35899;50.352;19.390;2023-11-19T03:37:39;97933.09;;;0.14;100.00
50011;BME280;35899;50.352;19.390;2023-11-19T03:40:08;97926.98;;;0.13;100.00
50011;BME280;35899;50.352;19.390;2023-11-19T03:42:36;97924.96;;;0.12;100.00
50011;BME280;35899;50.352;19.390;2023-11-19T03:45:04;97921.61;;;0.10;100.00
50011;BME280;35899;50.352;19.390;2023-11-19T03:47:32;97915.36;;;0.09;100.00
50011;BME280;35899;50.352;19.390;2023-11-19T03:50:00;97909.46;;;0.07;100.00
50011;BME280;35899;50.352;19.390;2023-11-19T03:52:28;97898.10;;;0.05;100.00
50011;BME280;35899;50.352;19.390;2023-11-19T03:54:56;97889.61;;;0.05;100.00
50011;BME280;35899;50.352;19.390;2023-11-19T03:57:24;97887.77;;;0.04;100.00
50011;BME280;35899;50.352;19.390;2023-11-19T03:59:53;97895.59;;;0.05;100.00
50011;BME280;35899;50.352;19.390;2023-11-19T04:02:21;97892.02;;;0.04;100.00
50011;BME280;35899;50.352;19.390;2023-11-19T04:04:49;97888.64;;;0.03;100.00
50011;BME280;35899;50.352;19.390;2023-11-19T04:07:17;97879.64;;;0.03;100.00
50011;BME280;35899;50.352;19.390;2023-11-19T04:09:45;97868.59;;;0.02;100.00
50011;BME280;35899;50.352;19.390;2023-11-19T04:12:13;97861.48;;;0.01;100.00
50011;BME280;35899;50.352;19.390;2023-11-19T04:14:41;97851.14;;;-0.01;100.00
50011;BME280;35899;50.352;19.390;2023-11-19T04:17:09;97853.36;;;-0.01;100.00
50011;BME280;35899;50.352;19.390;2023-11-19T04:19:37;97852.02;;;-0.02;100.00
50011;BME280;35899;50.352;19.390;2023-11-19T04:22:05;97844.05;;;-0.03;100.00
50011;BME280;35899;50.352;19.390;2023-11-19T04:24:33;97849.37;;;-0.04;100.00
50011;BME280;35899;50.352;19.390;2023-11-19T04:27:01;97853.69;;;-0.06;100.00
50011;BME280;35899;50.352;19.390;2023-11-19T04:29:29;97853.73;;;-0.08;100.00
50011;BME280;35899;50.352;19.390;2023-11-19T04:31:57;97839.70;;;-0.10;100.00
50011;BME280;35899;50.352;19.390;2023-11-19T04:34:25;97824.78;;;-0.12;100.00
50011;BME280;35899;50.352;19.390;2023-11-19T04:36:54;97819.91;;;-0.14;100.00
50011;BME280;35899;50.352;19.390;2023-11-19T04:39:22;97825.73;;;-0.15;100.00
50011;BME280;35899;50.352;19.390;2023-11-19T04:41:50;97825.92;;;-0.17;100.00
50011;BME280;35899;50.352;19.390;2023-11-19T04:44:18;97820.38;;;-0.19;100.00
50011;BME280;35899;50.352;19.390;2023-11-19T04:46:46;97812.66;;;-0.23;100.00
50011;BME280;35899;50.352;19.390;2023-11-19T04:49:14;97809.41;;;-0.28;100.00
50011;BME280;35899;50.352;19.390;2023-11-19T04:51:51;97814.19;;;-0.34;100.00
50011;BME280;35899;50.352;19.390;2023-11-19T04:54:19;97820.66;;;-0.41;100.00
50011;BME280;35899;50.352;19.390;2023-11-19T04:56:47;97814.60;;;-0.49;100.00
50011;BME280;35899;50.352;19.390;2023-11-19T04:59:15;97814.45;;;-0.56;100.00
50011;BME280;35899;50.352;19.390;2023-11-19T05:01:46;97817.67;;;-0.63;100.00
50011;BME280;35899;50.352;19.390;2023-11-19T05:04:14;97817.31;;;-0.68;100.00
50011;BME280;35899;50.352;19.390;2023-11-19T05:06:42;97814.23;;;-0.74;100.00
50011;BME280;35899;50.352;19.390;2023-11-19T05:09:10;97811.64;;;-0.78;100.00
50011;BME280;35899;50.352;19.390;2023-11-19T05:11:38;97809.05;;;-0.84;100.00
50011;BME280;35899;50.352;19.390;2023-11-19T05:14:18;97806.78;;;-0.88;100.00
50011;BME280;35899;50.352;19.390;2023-11-19T05:16:47;97808.75;;;-0.92;100.00
50011;BME280;35899;50.352;19.390;2023-11-19T05:19:15;97810.19;;;-0.95;100.00
50011;BME280;35899;50.352;19.390;2023-11-19T05:21:43;97812.46;;;-0.97;100.00
50011;BME280;35899;50.352;19.390;2023-11-19T05:24:11;97810.28;;;-0.99;100.00
50011;BME280;35899;50.352;19.390;2023-11-19T05:26:40;97802.83;;;-1.00;100.00
50011;BME280;35899;50.352;19.390;2023-11-19T05:29:07;97796.91;;;-1.00;100.00
50011;BME280;35899;50.352;19.390;2023-11-19T05:31:36;97787.73;;;-1.00;100.00
50011;BME280;35899;50.352;19.390;2023-11-19T05:34:06;97780.90;;;-0.99;100.00
50011;BME280;35899;50.352;19.390;2023-11-19T05:36:34;97771.04;;;-0.98;100.00
50011;BME280;35899;50.352;19.390;2023-11-19T05:39:02;97756.09;;;-0.98;100.00
50011;BME280;35899;50.352;19.390;2023-11-19T05:41:30;97749.11;;;-0.97;100.00
50011;BME280;35899;50.352;19.390;2023-11-19T05:43:58;97742.80;;;-0.96;100.00
50011;BME280;35899;50.352;19.390;2023-11-19T05:46:26;97739.38;;;-0.95;100.00
50011;BME280;35899;50.352;19.390;2023-11-19T05:48:54;97739.20;;;-0.95;100.00
50011;BME280;35899;50.352;19.390;2023-11-19T05:51:22;97733.28;;;-0.96;100.00
50011;BME280;35899;50.352;19.390;2023-11-19T05:53:50;97727.05;;;-0.98;100.00
50011;BME280;35899;50.352;19.390;2023-11-19T05:56:18;97735.11;;;-1.01;100.00
50011;BME280;35899;50.352;19.390;2023-11-19T05:58:46;97738.42;;;-1.04;100.00
50011;BME280;35899;50.352;19.390;2023-11-19T06:01:14;97746.95;;;-1.05;100.00
50011;BME280;35899;50.352;19.390;2023-11-19T06:03:42;97748.70;;;-1.07;100.00
50011;BME280;35899;50.352;19.390;2023-11-19T06:06:10;97744.14;;;-1.08;100.00
50011;BME280;35899;50.352;19.390;2023-11-19T06:08:38;97739.05;;;-1.09;100.00
50011;BME280;35899;50.352;19.390;2023-11-19T06:11:06;97739.89;;;-1.08;100.00
50011;BME280;35899;50.352;19.390;2023-11-19T06:13:34;97739.85;;;-1.07;100.00
50011;BME280;35899;50.352;19.390;2023-11-19T06:16:03;97744.42;;;-1.06;100.00
50011;BME280;35899;50.352;19.390;2023-11-19T06:18:31;97743.52;;;-1.04;100.00
50011;BME280;35899;50.352;19.390;2023-11-19T06:20:59;97746.81;;;-1.01;100.00
50011;BME280;35899;50.352;19.390;2023-11-19T06:23:27;97750.79;;;-0.96;100.00
50011;BME280;35899;50.352;19.390;2023-11-19T06:25:55;97748.29;;;-0.92;100.00
50011;BME280;35899;50.352;19.390;2023-11-19T06:28:23;97738.46;;;-0.87;100.00
50011;BME280;35899;50.352;19.390;2023-11-19T06:30:51;97739.21;;;-0.83;100.00
50011;BME280;35899;50.352;19.390;2023-11-19T06:33:19;97737.73;;;-0.79;100.00
50011;BME280;35899;50.352;19.390;2023-11-19T06:35:47;97730.48;;;-0.74;100.00
50011;BME280;35899;50.352;19.390;2023-11-19T06:38:15;97722.70;;;-0.70;100.00
50011;BME280;35899;50.352;19.390;2023-11-19T06:40:43;97723.60;;;-0.65;100.00
50011;BME280;35899;50.352;19.390;2023-11-19T06:43:11;97723.98;;;-0.61;100.00
50011;BME280;35899;50.352;19.390;2023-11-19T06:45:39;97730.80;;;-0.55;100.00
50011;BME280;35899;50.352;19.390;2023-11-19T06:48:07;97726.38;;;-0.50;100.00
50011;BME280;35899;50.352;19.390;2023-11-19T06:50:35;97714.63;;;-0.43;100.00
50011;BME280;35899;50.352;19.390;2023-11-19T06:53:04;97708.66;;;-0.37;100.00
50011;BME280;35899;50.352;19.390;2023-11-19T06:55:32;97698.16;;;-0.32;100.00
50011;BME280;35899;50.352;19.390;2023-11-19T06:58:00;97690.43;;;-0.30;100.00
50011;BME280;35899;50.352;19.390;2023-11-19T07:00:29;97691.98;;;-0.25;100.00
50011;BME280;35899;50.352;19.390;2023-11-19T07:02:57;97691.35;;;-0.21;100.00
50011;BME280;35899;50.352;19.390;2023-11-19T07:05:29;97686.29;;;-0.16;100.00
50011;BME280;35899;50.352;19.390;2023-11-19T07:07:57;97682.58;;;-0.12;100.00
50011;BME280;35899;50.352;19.390;2023-11-19T07:10:25;97682.98;;;-0.09;100.00
50011;BME280;35899;50.352;19.390;2023-11-19T07:12:53;97684.61;;;-0.06;100.00
50011;BME280;35899;50.352;19.390;2023-11-19T07:15:21;97673.98;;;-0.04;100.00
50011;BME280;35899;50.352;19.390;2023-11-19T07:17:52;97677.80;;;-0.01;100.00
50011;BME280;35899;50.352;19.390;2023-11-19T07:20:23;97679.36;;;0.04;100.00
50011;BME280;35899;50.352;19.390;2023-11-19T07:22:51;97682.30;;;0.08;100.00
50011;BME280;35899;50.352;19.390;2023-11-19T07:25:22;97680.67;;;0.11;100.00
50011;BME280;35899;50.352;19.390;2023-11-19T07:27:51;97680.92;;;0.14;100.00
50011;BME280;35899;50.352;19.390;2023-11-19T07:30:19;97674.63;;;0.19;100.00
50011;BME280;35899;50.352;19.390;2023-11-19T07:32:47;97673.86;;;0.27;100.00
50011;BME280;35899;50.352;19.390;2023-11-19T07:35:15;97667.17;;;0.33;100.00
50011;BME280;35899;50.352;19.390;2023-11-19T07:37:43;97655.07;;;0.39;100.00
50011;BME280;35899;50.352;19.390;2023-11-19T07:40:11;97652.04;;;0.43;100.00
50011;BME280;35899;50.352;19.390;2023-11-19T07:42:39;97652.38;;;0.48;100.00
50011;BME280;35899;50.352;19.390;2023-11-19T07:45:11;97648.98;;;0.53;100.00
50011;BME280;35899;50.352;19.390;2023-11-19T07:47:39;97648.83;;;0.57;100.00
50011;BME280;35899;50.352;19.390;2023-11-19T07:50:10;97641.52;;;0.62;100.00
50011;BME280;35899;50.352;19.390;2023-11-19T07:52:39;97647.33;;;0.67;100.00
50011;BME280;35899;50.352;19.390;2023-11-19T07:55:07;97639.36;;;0.71;100.00
50011;BME280;35899;50.352;19.390;2023-11-19T07:57:35;97626.63;;;0.74;100.00
50011;BME280;35899;50.352;19.390;2023-11-19T08:00:03;97627.77;;;0.80;100.00
50011;BME280;35899;50.352;19.390;2023-11-19T08:02:39;97623.24;;;0.88;100.00
50011;BME280;35899;50.352;19.390;2023-11-19T08:05:10;97616.77;;;0.97;100.00
50011;BME280;35899;50.352;19.390;2023-11-19T08:07:38;97613.25;;;1.09;100.00
50011;BME280;35899;50.352;19.390;2023-11-19T08:10:07;97611.36;;;1.24;100.00
50011;BME280;35899;50.352;19.390;2023-11-19T08:12:36;97610.77;;;1.39;100.00
50011;BME280;35899;50.352;19.390;2023-11-19T08:15:04;97601.47;;;1.55;100.00
50011;BME280;35899;50.352;19.390;2023-11-19T08:17:33;97595.51;;;1.68;100.00
50011;BME280;35899;50.352;19.390;2023-11-19T08:20:01;97592.16;;;1.75;100.00
50011;BME280;35899;50.352;19.390;2023-11-19T08:22:29;97586.96;;;1.77;100.00
50011;BME280;35899;50.352;19.390;2023-11-19T08:24:58;97580.89;;;1.80;100.00
50011;BME280;35899;50.352;19.390;2023-11-19T08:27:26;97582.95;;;1.79;100.00
50011;BME280;35899;50.352;19.390;2023-11-19T08:29:54;97576.20;;;1.78;100.00
50011;BME280;35899;50.352;19.390;2023-11-19T08:32:25;97571.70;;;1.79;100.00
50011;BME280;35899;50.352;19.390;2023-11-19T08:34:54;97571.71;;;1.79;100.00
50011;BME280;35899;50.352;19.390;2023-11-19T08:37:21;97576.52;;;1.82;100.00
50011;BME280;35899;50.352;19.390;2023-11-19T08:39:51;97585.81;;;1.84;100.00
50011;BME280;35899;50.352;19.390;2023-11-19T08:42:19;97584.64;;;1.84;100.00
50011;BME280;35899;50.352;19.390;2023-11-19T08:44:50;97581.97;;;1.86;100.00
50011;BME280;35899;50.352;19.390;2023-11-19T08:47:18;97572.34;;;1.92;100.00
50011;BME280;35899;50.352;19.390;2023-11-19T08:49:47;97569.96;;;1.96;100.00
50011;BME280;35899;50.352;19.390;2023-11-19T08:52:31;97568.15;;;1.99;100.00
50011;BME280;35899;50.352;19.390;2023-11-19T08:55:02;97565.42;;;1.99;100.00
50011;BME280;35899;50.352;19.390;2023-11-19T08:57:33;97568.11;;;2.00;100.00
50011;BME280;35899;50.352;19.390;2023-11-19T09:00:02;97564.01;;;2.00;100.00
50011;BME280;35899;50.352;19.390;2023-11-19T09:02:30;97553.79;;;2.00;100.00
50011;BME280;35899;50.352;19.390;2023-11-19T09:04:58;97546.48;;;2.03;100.00
50011;BME280;35899;50.352;19.390;2023-11-19T09:07:26;97547.36;;;2.07;100.00
50011;BME280;35899;50.352;19.390;2023-11-19T09:09:54;97548.42;;;2.09;100.00
50011;BME280;35899;50.352;19.390;2023-11-19T09:12:22;97544.28;;;2.11;100.00
50011;BME280;35899;50.352;19.390;2023-11-19T09:15:17;97520.27;;;2.18;100.00
50011;BME280;35899;50.352;19.390;2023-11-19T09:18:25;97502.73;;;2.28;100.00
50011;BME280;35899;50.352;19.390;2023-11-19T09:21:03;97496.02;;;2.37;100.00
50011;BME280;35899;50.352;19.390;2023-11-19T09:23:31;97508.42;;;2.43;100.00
50011;BME280;35899;50.352;19.390;2023-11-19T09:26:05;97513.61;;;2.45;100.00
50011;BME280;35899;50.352;19.390;2023-11-19T09:28:34;97500.68;;;2.52;100.00
50011;BME280;35899;50.352;19.390;2023-11-19T09:31:14;97488.30;;;2.61;100.00
50011;BME280;35899;50.352;19.390;2023-11-19T09:34:00;97492.92;;;2.84;100.00
50011;BME280;35899;50.352;19.390;2023-11-19T09:36:29;97492.26;;;3.02;100.00
50011;BME280;35899;50.352;19.390;2023-11-19T09:38:57;97492.73;;;3.17;100.00
50011;BME280;35899;50.352;19.390;2023-11-19T09:41:25;97490.25;;;3.30;100.00
50011;BME280;35899;50.352;19.390;2023-11-19T09:43:53;97487.73;;;3.40;100.00
50011;BME280;35899;50.352;19.390;2023-11-19T09:46:21;97479.75;;;3.46;100.00
50011;BME280;35899;50.352;19.390;2023-11-19T09:48:50;97475.06;;;3.40;100.00
50011;BME280;35899;50.352;19.390;2023-11-19T09:51:19;97461.02;;;3.33;100.00
50011;BME280;35899;50.352;19.390;2023-11-19T09:53:47;97454.61;;;3.28;100.00
50011;BME280;35899;50.352;19.390;2023-11-19T09:56:15;97451.53;;;3.28;100.00
50011;BME280;35899;50.352;19.390;2023-11-19T09:58:44;97446.47;;;3.27;100.00
50011;BME280;35899;50.352;19.390;2023-11-19T10:01:12;97453.89;;;3.25;100.00
50011;BME280;35899;50.352;19.390;2023-11-19T10:03:43;97446.38;;;3.25;100.00
50011;BME280;35899;50.352;19.390;2023-11-19T10:06:15;97434.52;;;3.30;100.00
50011;BME280;35899;50.352;19.390;2023-11-19T10:08:43;97427.34;;;3.26;100.00
50011;BME280;35899;50.352;19.390;2023-11-19T10:11:12;97424.83;;;3.25;100.00
50011;BME280;35899;50.352;19.390;2023-11-19T10:13:41;97418.89;;;3.27;100.00
50011;BME280;35899;50.352;19.390;2023-11-19T10:16:09;97411.40;;;3.27;100.00
50011;BME280;35899;50.352;19.390;2023-11-19T10:18:42;97412.49;;;3.25;100.00
50011;BME280;35899;50.352;19.390;2023-11-19T10:21:14;97407.75;;;3.28;100.00
50011;BME280;35899;50.352;19.390;2023-11-19T10:23:49;97397.71;;;3.34;100.00
50011;BME280;35899;50.352;19.390;2023-11-19T10:26:17;97388.93;;;3.45;100.00
50011;BME280;35899;50.352;19.390;2023-11-19T10:28:46;97379.49;;;3.70;100.00
50011;BME280;35899;50.352;19.390;2023-11-19T10:31:15;97377.89;;;3.87;100.00
50011;BME280;35899;50.352;19.390;2023-11-19T10:33:46;97372.16;;;3.86;100.00
50011;BME280;35899;50.352;19.390;2023-11-19T10:36:14;97373.64;;;3.77;100.00
50011;BME280;35899;50.352;19.390;2023-11-19T10:38:53;97371.71;;;3.65;100.00
50011;BME280;35899;50.352;19.390;2023-11-19T10:41:28;97364.98;;;3.52;100.00
50011;BME280;35899;50.352;19.390;2023-11-19T10:43:57;97357.31;;;3.48;100.00
50011;BME280;35899;50.352;19.390;2023-11-19T10:46:41;97357.50;;;3.41;100.00
50011;BME280;35899;50.352;19.390;2023-11-19T10:49:11;97349.61;;;3.24;100.00
50011;BME280;35899;50.352;19.390;2023-11-19T10:51:46;97345.20;;;3.13;100.00
50011;BME280;35899;50.352;19.390;2023-11-19T10:54:15;97339.92;;;3.06;100.00
50011;BME280;35899;50.352;19.390;2023-11-19T10:56:47;97327.33;;;2.98;100.00
50011;BME280;35899;50.352;19.390;2023-11-19T10:59:30;97322.33;;;2.88;100.00
50011;BME280;35899;50.352;19.390;2023-11-19T11:02:06;97324.90;;;2.78;100.00
50011;BME280;35899;50.352;19.390;2023-11-19T11:04:39;97315.08;;;2.69;100.00
50011;BME280;35899;50.352;19.390;2023-11-19T11:07:08;97307.67;;;2.59;100.00
50011;BME280;35899;50.352;19.390;2023-11-19T11:09:37;97295.77;;;2.51;100.00
50011;BME280;35899;50.352;19.390;2023-11-19T11:12:06;97293.66;;;2.45;100.00
50011;BME280;35899;50.352;19.390;2023-11-19T11:14:34;97291.05;;;2.42;100.00
50011;BME280;35899;50.352;19.390;2023-11-19T11:17:05;97287.79;;;2.36;100.00
50011;BME280;35899;50.352;19.390;2023-11-19T11:19:34;97288.99;;;2.32;100.00
50011;BME280;35899;50.352;19.390;2023-11-19T11:22:06;97288.95;;;2.29;100.00
50011;BME280;35899;50.352;19.390;2023-11-19T11:24:54;97285.38;;;2.29;100.00
50011;BME280;35899;50.352;19.390;2023-11-19T11:27:40;97277.69;;;2.28;100.00
50011;BME280;35899;50.352;19.390;2023-11-19T11:32:45;97272.64;;;2.24;100.00
50011;BME280;35899;50.352;19.390;2023-11-19T11:38:08;97265.27;;;2.09;100.00
50011;BME280;35899;50.352;19.390;2023-11-19T11:40:37;97255.32;;;2.03;100.00
50011;BME280;35899;50.352;19.390;2023-11-19T11:43:05;97248.98;;;2.01;100.00
50011;BME280;35899;50.352;19.390;2023-11-19T11:45:53;97244.65;;;1.94;100.00
50011;BME280;35899;50.352;19.390;2023-11-19T11:48:22;97254.55;;;1.90;100.00
50011;BME280;35899;50.352;19.390;2023-11-19T11:50:56;97258.48;;;1.86;100.00
50011;BME280;35899;50.352;19.390;2023-11-19T11:53:25;97252.35;;;1.83;100.00
50011;BME280;35899;50.352;19.390;2023-11-19T11:55:53;97242.71;;;1.81;100.00
50011;BME280;35899;50.352;19.390;2023-11-19T11:58:25;97223.29;;;1.80;100.00
50011;BME280;35899;50.352;19.390;2023-11-19T12:00:54;97225.39;;;1.79;100.00
50011;BME280;35899;50.352;19.390;2023-11-19T12:03:26;97223.61;;;1.77;100.00
50011;BME280;35899;50.352;19.390;2023-11-19T12:05:55;97229.25;;;1.73;100.00
50011;BME280;35899;50.352;19.390;2023-11-19T12:08:27;97221.79;;;1.72;100.00
50011;BME280;35899;50.352;19.390;2023-11-19T12:10:59;97219.33;;;1.74;100.00
50011;BME280;35899;50.352;19.390;2023-11-19T12:13:54;97214.80;;;1.75;100.00
50011;BME280;35899;50.352;19.390;2023-11-19T12:16:22;97217.56;;;1.75;100.00
50011;BME280;35899;50.352;19.390;2023-11-19T12:18:50;97208.33;;;1.75;100.00
50011;BME280;35899;50.352;19.390;2023-11-19T12:21:28;97198.60;;;1.79;100.00
50011;BME280;35899;50.352;19.390;2023-11-19T12:24:02;97195.90;;;1.79;100.00
50011;BME280;35899;50.352;19.390;2023-11-19T12:26:34;97190.44;;;1.79;100.00
50011;BME280;35899;50.352;19.390;2023-11-19T12:29:03;97182.12;;;1.78;100.00
50011;BME280;35899;50.352;19.390;2023-11-19T12:31:35;97180.07;;;1.74;100.00
50011;BME280;35899;50.352;19.390;2023-11-19T12:34:07;97181.48;;;1.69;100.00
50011;BME280;35899;50.352;19.390;2023-11-19T12:36:35;97175.82;;;1.67;100.00
50011;BME280;35899;50.352;19.390;2023-11-19T12:39:03;97171.07;;;1.66;100.00
50011;BME280;35899;50.352;19.390;2023-11-19T12:41:31;97164.98;;;1.65;100.00
50011;BME280;35899;50.352;19.390;2023-11-19T12:44:08;97162.91;;;1.62;100.00
50011;BME280;35899;50.352;19.390;2023-11-19T12:46:37;97168.10;;;1.60;100.00
50011;BME280;35899;50.352;19.390;2023-11-19T12:49:14;97163.63;;;1.58;100.00
50011;BME280;35899;50.352;19.390;2023-11-19T12:51:43;97153.78;;;1.56;100.00
50011;BME280;35899;50.352;19.390;2023-11-19T12:54:12;97153.96;;;1.56;100.00
50011;BME280;35899;50.352;19.390;2023-11-19T12:56:40;97149.98;;;1.54;100.00
50011;BME280;35899;50.352;19.390;2023-11-19T12:59:12;97145.36;;;1.50;100.00
50011;BME280;35899;50.352;19.390;2023-11-19T13:01:40;97146.41;;;1.50;100.00
50011;BME280;35899;50.352;19.390;2023-11-19T13:04:18;97146.08;;;1.49;100.00
50011;BME280;35899;50.352;19.390;2023-11-19T13:06:46;97140.19;;;1.48;100.00
50011;BME280;35899;50.352;19.390;2023-11-19T13:09:39;97133.16;;;1.45;100.00